Time;durP1;ratioP1;P1;durP2;ratioP2;P2;SDS_P1;SDS_P2;PMS_P1;PMS_P2;Temp;Humidity;BMP_temperature;BMP_pressure;BME280_temperature;BME280_humidity;BME280_pressure;Samples;Min_cycle;Max_cycle;Signal;HPM_P1;HPM_P2
2023/07/13 00:01:28;;;;;;;21.73;19.95;;;18.90;10.90;;;;;;5007197;28;20033;-58
2023/07/13 00:03:53;;;;;;;21.85;20.13;;;18.90;1.00;;;;;;5011135;28;20129;-57
2023/07/13 00:06:20;;;;;;;21.05;19.45;;;18.80;1.00;;;;;;5011186;28;20112;-57
2023/07/13 00:08:47;;;;;;;22.02;20.38;;;18.80;1.00;;;;;;5011203;28;20051;-58
2023/07/13 00:11:14;;;;;;;21.85;20.15;;;18.90;1.00;;;;;;5009986;28;20561;-57
2023/07/13 00:13:40;;;;;;;23.45;21.65;;;18.90;1.00;;;;;;5011092;28;20099;-57
2023/07/13 00:16:05;;;;;;;22.65;20.85;;;18.90;99.90;;;;;;5011279;28;20042;-57
2023/07/13 00:18:31;;;;;;;23.95;21.80;;;18.90;99.90;;;;;;5011018;28;20038;-58
2023/07/13 00:21:04;;;;;;;23.73;21.60;;;19.50;99.90;;;;;;5010825;28;20125;-57
2023/07/13 00:23:37;;;;;;;23.45;21.48;;;18.90;99.90;;;;;;5010585;28;20053;-58
2023/07/13 00:26:08;;;;;;;24.73;22.67;;;18.90;99.90;;;;;;5011042;28;20052;-57
2023/07/13 00:28:34;;;;;;;25.65;23.55;;;18.90;99.90;;;;;;5011065;28;20487;-57
2023/07/13 00:31:00;;;;;;;27.80;24.98;;;18.90;1.00;;;;;;5017814;28;20037;-57
2023/07/13 00:33:26;;;;;;;26.17;23.80;;;18.80;1.00;;;;;;5015556;28;20214;-57
2023/07/13 00:35:55;;;;;;;24.55;22.45;;;18.90;1.00;;;;;;5010387;28;20077;-58
2023/07/13 00:38:20;;;;;;;25.80;23.60;;;18.80;1.00;;;;;;5010714;28;20034;-57
2023/07/13 00:40:46;;;;;;;26.65;24.55;;;18.80;1.00;;;;;;5017880;28;20045;-58
2023/07/13 00:43:18;;;;;;;27.83;25.20;;;18.90;1.00;;;;;;5022806;28;20057;-58
2023/07/13 00:45:44;;;;;;;27.40;25.08;;;18.90;26.90;;;;;;5029749;28;20068;-57
2023/07/13 00:48:17;;;;;;;28.38;25.88;;;18.80;78.50;;;;;;5010832;28;20034;-58
2023/07/13 00:50:44;;;;;;;28.13;25.55;;;18.90;99.90;;;;;;5010334;28;20443;-57
2023/07/13 00:53:11;;;;;;;28.67;25.90;;;18.90;99.90;;;;;;5010648;28;20069;-58
2023/07/13 00:55:38;;;;;;;28.25;25.52;;;19.00;99.90;;;;;;5010565;28;20050;-57
2023/07/13 00:58:06;;;;;;;28.55;26.05;;;18.90;99.90;;;;;;5010297;28;20042;-57
2023/07/13 01:00:35;;;;;;;29.55;26.15;;;19.00;99.90;;;;;;5003586;28;20958;-57
2023/07/13 01:03:04;;;;;;;28.52;25.92;;;19.00;99.90;;;;;;5005002;28;20718;-57
2023/07/13 01:05:34;;;;;;;28.67;26.00;;;19.00;99.90;;;;;;5008984;28;20125;-57
2023/07/13 01:08:01;;;;;;;29.63;26.83;;;19.10;99.90;;;;;;5010279;28;20046;-58
2023/07/13 01:10:27;;;;;;;29.83;26.98;;;19.00;99.90;;;;;;5027406;28;20529;-57
2023/07/13 01:12:54;;;;;;;29.10;26.30;;;19.00;99.90;;;;;;5002049;28;20459;-57
2023/07/13 01:15:38;;;;;;;29.33;26.48;;;19.00;99.90;;;;;;5010454;28;20048;-58
2023/07/13 01:18:06;;;;;;;29.30;26.52;;;19.00;99.90;;;;;;5010029;28;20069;-57
2023/07/13 01:20:36;;;;;;;30.50;27.38;;;19.40;1.00;;;;;;5012998;28;20088;-58
2023/07/13 01:23:07;;;;;;;31.25;28.25;;;19.00;1.00;;;;;;5020622;28;20088;-58
2023/07/13 01:25:35;;;;;;;31.35;28.30;;;19.00;1.00;;;;;;5010503;28;20050;-58
2023/07/13 01:28:01;;;;;;;32.20;28.75;;;19.20;1.00;;;;;;5009941;28;20042;-58
2023/07/13 01:30:27;;;;;;;31.05;27.85;;;19.10;16.90;;;;;;5010106;28;20095;-58
2023/07/13 01:32:52;;;;;;;32.00;28.75;;;19.10;63.80;;;;;;5010499;28;20439;-58
2023/07/13 01:35:18;;;;;;;31.08;27.80;;;19.20;99.90;;;;;;5014135;28;20038;-58
2023/07/13 01:37:44;;;;;;;31.27;28.17;;;19.20;99.90;;;;;;5013957;28;20041;-57
2023/07/13 01:40:11;;;;;;;31.45;28.35;;;19.20;99.90;;;;;;5014167;28;20145;-57
2023/07/13 01:42:37;;;;;;;29.75;26.80;;;18.80;99.90;;;;;;5013372;28;20042;-57
2023/07/13 01:45:03;;;;;;;30.40;27.50;;;19.30;99.90;;;;;;5033128;28;20037;-57
2023/07/13 01:47:30;;;;;;;30.45;27.58;;;19.40;99.90;;;;;;5020340;28;20053;-57
2023/07/13 01:49:59;;;;;;;27.83;25.33;;;19.30;99.90;;;;;;5014022;28;20527;-57
2023/07/13 01:52:24;;;;;;;29.02;26.27;;;19.30;99.90;;;;;;5013739;28;20523;-57
2023/07/13 01:54:50;;;;;;;29.25;26.23;;;19.30;99.90;;;;;;5013346;28;20037;-57
2023/07/13 01:57:15;;;;;;;28.00;25.27;;;19.30;99.90;;;;;;5013472;28;20571;-57
2023/07/13 01:59:41;;;;;;;29.48;26.58;;;19.30;66.50;;;;;;5009272;28;20608;-57
2023/07/13 02:02:07;;;;;;;29.70;26.80;;;19.30;6.30;;;;;;4994173;28;20405;-57
2023/07/13 02:04:33;;;;;;;31.40;28.08;;;19.30;1.00;;;;;;5012877;28;20530;-57
2023/07/13 02:06:59;;;;;;;30.55;27.48;;;19.20;1.00;;;;;;5013337;28;20459;-57
2023/07/13 02:09:24;;;;;;;31.88;28.83;;;19.30;7.40;;;;;;5013373;28;20034;-57
2023/07/13 02:11:50;;;;;;;31.75;28.30;;;19.30;1.00;;;;;;5013354;28;20046;-57
2023/07/13 02:14:16;;;;;;;31.50;28.45;;;19.20;7.50;;;;;;5012728;28;20594;-57
2023/07/13 02:16:41;;;;;;;31.30;28.15;;;19.20;38.10;;;;;;5013544;28;20454;-57
2023/07/13 02:19:08;;;;;;;31.92;28.60;;;19.20;79.50;;;;;;5013132;28;20469;-57
2023/07/13 02:21:33;;;;;;;32.22;28.77;;;19.20;99.90;;;;;;5013358;28;20038;-57
2023/07/13 02:23:59;;;;;;;31.73;28.60;;;19.20;99.90;;;;;;5012850;28;20042;-57
2023/07/13 02:26:25;;;;;;;31.77;28.80;;;19.30;99.90;;;;;;5012908;28;20042;-57
2023/07/13 02:28:51;;;;;;;31.63;28.65;;;19.20;99.90;;;;;;5012815;28;20216;-57
2023/07/13 02:31:17;;;;;;;32.35;28.92;;;19.20;99.90;;;;;;5013004;28;20084;-57
2023/07/13 02:33:43;;;;;;;33.33;29.45;;;19.10;99.90;;;;;;5012775;28;20531;-57
2023/07/13 02:36:09;;;;;;;32.17;29.02;;;19.40;99.90;;;;;;5012916;28;20046;-58
2023/07/13 02:38:38;;;;;;;33.40;30.00;;;19.30;99.90;;;;;;5003702;28;20046;-57
2023/07/13 02:41:06;;;;;;;32.13;29.02;;;19.20;1.00;;;;;;5012703;28;20049;-57
2023/07/13 02:43:31;;;;;;;33.88;30.55;;;19.10;1.00;;;;;;5004464;28;20133;-57
2023/07/13 02:46:03;;;;;;;34.67;30.92;;;19.00;1.00;;;;;;4992151;28;20509;-57
2023/07/13 02:48:29;;;;;;;33.63;30.33;;;19.20;1.00;;;;;;5011863;28;20412;-57
2023/07/13 02:50:55;;;;;;;37.05;31.48;;;19.00;62.30;;;;;;5012598;28;20067;-57
2023/07/13 02:53:21;;;;;;;34.25;30.80;;;19.10;99.90;;;;;;5012522;28;20080;-57
2023/07/13 02:55:47;;;;;;;33.95;30.88;;;19.00;99.90;;;;;;5013873;28;20048;-57
2023/07/13 02:58:16;;;;;;;34.72;31.20;;;18.90;99.90;;;;;;5015560;28;20041;-57
2023/07/13 03:00:43;;;;;;;35.05;31.60;;;19.00;99.90;;;;;;5000437;28;20057;-57
2023/07/13 03:03:09;;;;;;;33.50;30.27;;;18.50;99.90;;;;;;4997595;28;20033;-57
2023/07/13 03:05:34;;;;;;;35.13;31.77;;;18.90;1.00;;;;;;5012074;28;20141;-56
2023/07/13 03:08:00;;;;;;;37.30;31.52;;;18.70;1.00;;;;;;5012219;28;20029;-57
2023/07/13 03:10:25;;;;;;;35.22;31.58;;;18.90;6.40;;;;;;5010881;28;20038;-57
2023/07/13 03:12:51;;;;;;;36.33;31.67;;;18.80;86.70;;;;;;5011825;28;20551;-57
2023/07/13 03:15:16;;;;;;;35.50;31.92;;;18.80;99.90;;;;;;5011923;28;20579;-57
2023/07/13 03:17:42;;;;;;;35.42;31.88;;;18.70;99.90;;;;;;5012379;28;20520;-57
2023/07/13 03:20:08;;;;;;;36.75;32.92;;;18.70;99.90;;;;;;5011945;28;20048;-57
2023/07/13 03:22:34;;;;;;;35.67;32.25;;;18.80;99.90;;;;;;5011803;28;20497;-57
2023/07/13 03:24:59;;;;;;;34.72;31.50;;;18.80;1.00;;;;;;5010862;28;20040;-57
2023/07/13 03:27:25;;;;;;;35.78;32.35;;;18.70;1.00;;;;;;5009839;28;20042;-57
2023/07/13 03:29:50;;;;;;;35.15;31.80;;;18.80;44.60;;;;;;5005628;28;20034;-57
2023/07/13 03:32:16;;;;;;;34.60;31.33;;;18.80;99.90;;;;;;5000288;28;20046;-57
2023/07/13 03:34:42;;;;;;;33.10;29.77;;;18.80;99.90;;;;;;5012000;28;20041;-57
2023/07/13 03:37:07;;;;;;;33.28;29.95;;;18.80;99.90;;;;;;5005063;28;20587;-57
2023/07/13 03:39:33;;;;;;;31.35;28.42;;;18.80;99.90;;;;;;5010711;28;20510;-57
2023/07/13 03:41:58;;;;;;;31.83;29.00;;;18.80;98.70;;;;;;5011735;28;20041;-57
2023/07/13 03:44:24;;;;;;;30.48;27.27;;;18.80;1.00;;;;;;5011495;28;20049;-57
2023/07/13 03:46:49;;;;;;;31.30;28.08;;;18.90;99.90;;;;;;5011633;28;20044;-57
2023/07/13 03:49:15;;;;;;;30.83;28.08;;;19.00;1.00;;;;;;5011584;28;20430;-57
2023/07/13 03:51:41;;;;;;;26.33;23.92;;;18.80;99.90;;;;;;5011359;28;20038;-57
2023/07/13 03:54:07;;;;;;;27.95;25.35;;;18.80;1.00;;;;;;5011364;28;20621;-57
2023/07/13 03:56:33;;;;;;;27.80;25.10;;;18.80;99.90;;;;;;5017492;28;20441;-57
2023/07/13 03:58:58;;;;;;;25.17;22.65;;;18.80;99.90;;;;;;5015766;28;20038;-57
2023/07/13 04:01:25;;;;;;;25.80;23.48;;;18.80;1.00;;;;;;5011363;28;20029;-57
2023/07/13 04:03:51;;;;;;;25.77;23.40;;;18.80;99.90;;;;;;5011370;28;20180;-57
2023/07/13 04:06:23;;;;;;;25.20;23.02;;;18.90;99.90;;;;;;5010959;28;20088;-57
2023/07/13 04:08:54;;;;;;;24.95;22.67;;;18.80;99.90;;;;;;5011157;28;20045;-57
2023/07/13 04:11:23;;;;;;;21.20;19.13;;;18.80;1.00;;;;;;5011175;28;20045;-57
2023/07/13 04:13:49;;;;;;;19.92;18.17;;;18.80;1.00;;;;;;5011494;28;20038;-57
2023/07/13 04:16:15;;;;;;;20.73;18.63;;;18.70;99.90;;;;;;5011857;28;20046;-57
2023/07/13 04:18:41;;;;;;;23.88;21.63;;;18.80;99.90;;;;;;5019108;28;20052;-57
2023/07/13 04:21:09;;;;;;;24.90;22.75;;;18.80;99.90;;;;;;5010888;28;20488;-57
2023/07/13 04:23:35;;;;;;;22.95;20.85;;;18.80;99.90;;;;;;5010414;28;20041;-57
2023/07/13 04:26:01;;;;;;;21.85;19.77;;;18.80;99.90;;;;;;5010892;28;20045;-57
2023/07/13 04:28:27;;;;;;;23.67;21.60;;;18.90;99.90;;;;;;5011052;28;20373;-57
2023/07/13 04:30:53;;;;;;;25.27;23.10;;;18.90;99.90;;;;;;5001704;28;20121;-57
2023/07/13 04:33:22;;;;;;;28.00;25.40;;;19.00;99.90;;;;;;4999283;28;20041;-57
2023/07/13 04:35:54;;;;;;;24.38;21.98;;;19.00;99.90;;;;;;5025772;28;20045;-57
2023/07/13 04:38:20;;;;;;;24.60;22.13;;;19.00;99.90;;;;;;5008823;28;20045;-57
2023/07/13 04:40:46;;;;;;;22.70;20.65;;;19.10;99.90;;;;;;5010170;28;20158;-57
2023/07/13 04:43:11;;;;;;;22.58;20.20;;;19.00;99.90;;;;;;5007594;28;20137;-58
2023/07/13 04:45:37;;;;;;;24.08;22.02;;;19.10;99.90;;;;;;5009981;28;20030;-57
2023/07/13 04:48:03;;;;;;;24.75;22.55;;;19.00;99.90;;;;;;5010440;28;20084;-57
2023/07/13 04:50:29;;;;;;;22.83;20.98;;;19.10;99.90;;;;;;5006445;28;20514;-57
2023/07/13 04:52:55;;;;;;;21.95;20.05;;;19.10;99.90;;;;;;5008752;28;20050;-57
2023/07/13 04:55:21;;;;;;;22.58;20.67;;;19.10;99.50;;;;;;5009072;28;20038;-58
2023/07/13 04:57:47;;;;;;;23.23;21.00;;;19.10;94.50;;;;;;5010141;28;20041;-63
2023/07/13 05:00:15;;;;;;;23.70;21.67;;;19.10;89.30;;;;;;5020359;28;20030;-63
2023/07/13 05:02:43;;;;;;;18.58;16.77;;;19.20;92.60;;;;;;5004003;28;20037;-63
2023/07/13 05:05:08;;;;;;;19.48;17.73;;;19.20;57.90;;;;;;5008289;28;20037;-63
2023/07/13 05:07:34;;;;;;;19.58;17.83;;;19.20;9.80;;;;;;5035717;28;20117;-63
2023/07/13 05:10:00;;;;;;;19.92;18.13;;;19.20;1.00;;;;;;5004202;28;20034;-63
2023/07/13 05:12:27;;;;;;;18.55;16.75;;;19.30;1.00;;;;;;5005462;28;20037;-63
2023/07/13 05:14:53;;;;;;;19.35;17.85;;;19.20;1.00;;;;;;5009385;28;20210;-62
2023/07/13 05:17:18;;;;;;;20.63;18.98;;;19.20;1.00;;;;;;5008343;28;20109;-63
2023/07/13 05:19:44;;;;;;;19.60;17.90;;;19.30;1.00;;;;;;5004928;28;20041;-64
2023/07/13 05:22:09;;;;;;;18.05;16.55;;;19.30;1.00;;;;;;5005786;28;20076;-63
2023/07/13 05:24:36;;;;;;;19.17;17.65;;;19.40;1.00;;;;;;5004561;28;20052;-63
2023/07/13 05:27:01;;;;;;;19.67;18.08;;;19.50;1.00;;;;;;5003331;28;20045;-63
2023/07/13 05:29:27;;;;;;;20.42;18.73;;;19.40;1.00;;;;;;5007449;28;20037;-63
2023/07/13 05:31:52;;;;;;;20.85;19.00;;;19.40;1.00;;;;;;4994885;28;20412;-63
2023/07/13 05:34:18;;;;;;;20.52;18.92;;;19.40;1.00;;;;;;4995664;28;20041;-63
2023/07/13 05:36:44;;;;;;;21.08;19.00;;;19.50;1.00;;;;;;5004797;28;20037;-63
2023/07/13 05:39:11;;;;;;;19.88;17.98;;;19.50;1.00;;;;;;5023055;28;20534;-63
2023/07/13 05:41:36;;;;;;;22.42;20.08;;;19.60;1.00;;;;;;5008745;28;20403;-63
2023/07/13 05:44:02;;;;;;;17.75;15.93;;;19.60;1.00;;;;;;5007807;28;20061;-63
2023/07/13 05:46:28;;;;;;;18.02;16.63;;;19.60;1.00;;;;;;5009214;28;20121;-63
2023/07/13 05:48:53;;;;;;;17.63;15.93;;;19.60;1.00;;;;;;4999360;28;20125;-63
2023/07/13 05:51:19;;;;;;;18.08;16.48;;;19.70;99.90;;;;;;5006338;28;20557;-63
2023/07/13 05:53:44;;;;;;;15.35;13.95;;;19.70;99.90;;;;;;5012609;28;20030;-63
2023/07/13 05:56:10;;;;;;;16.42;15.02;;;20.10;99.90;;;;;;5004300;28;20235;-64
2023/07/13 05:58:36;;;;;;;17.42;15.70;;;19.80;99.90;;;;;;5027581;28;20049;-63
2023/07/13 06:01:08;;;;;;;18.08;16.50;;;19.80;99.90;;;;;;5005755;28;20065;-68
2023/07/13 06:03:34;;;;;;;19.10;17.27;;;19.80;99.90;;;;;;5005532;28;20030;-69
2023/07/13 06:06:00;;;;;;;17.88;15.63;;;19.90;99.90;;;;;;5000987;28;20045;-65
2023/07/13 06:08:26;;;;;;;14.43;13.23;;;19.90;99.90;;;;;;5006276;28;20030;-63
2023/07/13 06:10:52;;;;;;;14.50;13.23;;;20.00;99.90;;;;;;5005124;28;20038;-63
2023/07/13 06:13:19;;;;;;;15.52;14.13;;;20.10;99.90;;;;;;5006146;28;20414;-63
2023/07/13 06:15:48;;;;;;;14.45;13.25;;;20.10;99.90;;;;;;5001718;28;20070;-63
2023/07/13 06:18:14;;;;;;;13.90;12.70;;;20.00;99.90;;;;;;4993524;28;20043;-63
2023/07/13 06:20:40;;;;;;;17.45;15.65;;;20.20;99.90;;;;;;5004652;28;20148;-63
2023/07/13 06:23:06;;;;;;;18.90;17.00;;;20.30;99.90;;;;;;5008608;28;20042;-64
2023/07/13 06:25:31;;;;;;;16.75;14.85;;;20.30;99.90;;;;;;5009347;28;20069;-64
2023/07/13 06:27:57;;;;;;;17.42;15.90;;;20.30;99.90;;;;;;5012575;28;20041;-64
2023/07/13 06:30:22;;;;;;;19.23;16.85;;;20.30;99.90;;;;;;5012799;28;20497;-64
2023/07/13 06:32:48;;;;;;;16.27;14.80;;;20.40;99.90;;;;;;5008462;28;20129;-64
2023/07/13 06:35:13;;;;;;;16.52;15.00;;;20.30;99.90;;;;;;5010187;28;20412;-64
2023/07/13 06:37:39;;;;;;;17.40;15.90;;;20.30;99.90;;;;;;5011083;28;20121;-64
2023/07/13 06:40:05;;;;;;;22.60;18.48;;;20.40;99.90;;;;;;5007500;28;20071;-65
2023/07/13 06:42:31;;;;;;;18.50;16.70;;;20.40;99.90;;;;;;5003719;28;20069;-64
2023/07/13 06:44:57;;;;;;;16.67;15.23;;;20.50;99.90;;;;;;5006753;28;20433;-64
2023/07/13 06:47:22;;;;;;;16.98;15.27;;;20.60;99.90;;;;;;5011851;28;20049;-66
2023/07/13 06:49:48;;;;;;;11.88;10.90;;;20.60;99.90;;;;;;5001039;28;20038;-63
2023/07/13 06:52:13;;;;;;;12.18;11.07;;;20.70;99.90;;;;;;5009823;28;20044;-63
2023/07/13 06:54:39;;;;;;;14.80;13.60;;;20.60;99.90;;;;;;5005833;28;20039;-63
2023/07/13 06:57:05;;;;;;;13.40;12.20;;;20.60;99.90;;;;;;5008409;28;20037;-63
2023/07/13 06:59:30;;;;;;;12.65;11.45;;;20.60;99.90;;;;;;5000880;28;20825;-62
2023/07/13 07:01:56;;;;;;;11.90;10.73;;;20.80;99.90;;;;;;5003636;28;20044;-63
2023/07/13 07:04:22;;;;;;;11.95;10.75;;;20.90;99.90;;;;;;5010031;28;20049;-63
2023/07/13 07:06:47;;;;;;;12.10;10.80;;;21.00;99.90;;;;;;4998399;28;20038;-63
2023/07/13 07:09:13;;;;;;;18.08;12.05;;;21.30;99.90;;;;;;5002422;28;20092;-63
2023/07/13 07:11:39;;;;;;;10.65;8.82;;;21.30;99.90;;;;;;5003745;28;20045;-63
2023/07/13 07:14:05;;;;;;;11.05;9.98;;;21.50;99.90;;;;;;5003376;28;20558;-63
2023/07/13 07:16:30;;;;;;;13.93;8.68;;;21.40;99.90;;;;;;5008282;28;20037;-63
2023/07/13 07:18:56;;;;;;;11.50;9.73;;;21.60;99.90;;;;;;5009487;28;20038;-63
2023/07/13 07:21:23;;;;;;;13.85;12.55;;;21.60;99.90;;;;;;5009537;28;20042;-63
2023/07/13 07:23:48;;;;;;;14.00;11.93;;;21.80;99.90;;;;;;5007628;28;20061;-63
2023/07/13 07:26:14;;;;;;;13.23;11.57;;;21.90;99.90;;;;;;5005672;28;20042;-63
2023/07/13 07:28:40;;;;;;;11.98;10.73;;;22.00;99.90;;;;;;5005300;28;20496;-63
2023/07/13 07:31:06;;;;;;;12.23;11.13;;;22.10;99.90;;;;;;5006170;28;20054;-64
2023/07/13 07:33:33;;;;;;;11.73;10.63;;;22.20;99.90;;;;;;5003597;28;20037;-64
2023/07/13 07:35:59;;;;;;;11.65;10.65;;;22.40;99.90;;;;;;5036253;28;20052;-64
2023/07/13 07:38:25;;;;;;;16.90;13.80;;;22.70;99.90;;;;;;5010144;28;20484;-63
2023/07/13 07:40:51;;;;;;;14.77;12.52;;;22.70;99.90;;;;;;5008878;28;20054;-64
2023/07/13 07:43:16;;;;;;;14.43;13.18;;;22.60;99.90;;;;;;5006655;28;20061;-63
2023/07/13 07:45:44;;;;;;;13.35;12.15;;;22.40;99.90;;;;;;5007677;28;20045;-63
2023/07/13 07:48:09;;;;;;;14.43;13.02;;;22.40;99.90;;;;;;5006934;28;20038;-64
2023/07/13 07:50:35;;;;;;;14.82;13.30;;;22.50;99.90;;;;;;5009040;28;20047;-63
2023/07/13 07:53:02;;;;;;;14.15;12.80;;;22.50;99.90;;;;;;5017687;28;20042;-64
2023/07/13 07:55:27;;;;;;;14.48;10.98;;;22.60;99.90;;;;;;4998640;28;20042;-63
2023/07/13 07:57:53;;;;;;;13.07;9.55;;;22.80;99.90;;;;;;5005702;28;20112;-64
2023/07/13 08:00:19;;;;;;;14.13;12.02;;;22.90;99.90;;;;;;5008784;28;20046;-63
2023/07/13 08:02:45;;;;;;;13.38;10.77;;;23.00;99.90;;;;;;5000098;28;20515;-64
2023/07/13 08:05:11;;;;;;;14.57;9.20;;;22.80;99.90;;;;;;4995936;28;20038;-64
2023/07/13 08:07:38;;;;;;;11.32;9.77;;;23.00;99.90;;;;;;5006593;28;20037;-64
2023/07/13 08:10:05;;;;;;;10.35;7.38;;;23.20;99.80;;;;;;5021644;28;20437;-64
2023/07/13 08:12:34;;;;;;;10.23;7.38;;;23.30;93.50;;;;;;5012542;28;20038;-63
2023/07/13 08:15:00;;;;;;;9.73;8.85;;;23.30;83.00;;;;;;5008094;28;20046;-64
2023/07/13 08:17:26;;;;;;;12.23;11.02;;;23.20;34.60;;;;;;5006865;28;20542;-64
2023/07/13 08:19:52;;;;;;;10.90;8.60;;;22.80;22.00;;;;;;4999726;28;20121;-63
2023/07/13 08:22:17;;;;;;;11.65;10.32;;;22.90;19.60;;;;;;5003705;28;20038;-63
2023/07/13 08:24:43;;;;;;;12.98;11.10;;;23.00;17.90;;;;;;5008306;28;20567;-64
2023/07/13 08:27:11;;;;;;;14.32;12.80;;;23.10;11.00;;;;;;5005002;28;20037;-63
2023/07/13 08:29:37;;;;;;;12.07;10.95;;;23.20;9.90;;;;;;5008840;28;20041;-64
2023/07/13 08:32:04;;;;;;;13.23;12.05;;;23.50;10.20;;;;;;5009377;28;20034;-64
2023/07/13 08:34:30;;;;;;;17.50;16.20;;;23.20;1.00;;;;;;5004880;28;20049;-64
2023/07/13 08:36:55;;;;;;;16.23;14.73;;;23.10;5.70;;;;;;5007459;28;20515;-63
2023/07/13 08:39:21;;;;;;;18.65;16.95;;;23.10;1.00;;;;;;5004014;28;21312;-64
2023/07/13 08:41:54;;;;;;;17.73;16.33;;;23.30;6.00;;;;;;5008946;28;20123;-64
2023/07/13 08:44:37;;;;;;;22.23;20.40;;;23.50;5.50;;;;;;5007397;28;20400;-64
2023/07/13 08:47:03;;;;;;;27.98;25.75;;;23.10;1.00;;;;;;5000856;28;20100;-64
2023/07/13 08:49:30;;;;;;;40.75;37.60;;;22.90;1.00;;;;;;4998876;28;20057;-64
2023/07/13 08:52:03;;;;;;;44.88;41.60;;;22.70;1.00;;;;;;5006798;28;20513;-64
2023/07/13 08:54:38;;;;;;;37.03;34.53;;;22.40;1.00;;;;;;5021286;28;20510;-64
2023/07/13 08:57:19;;;;;;;49.85;46.45;;;22.50;1.00;;;;;;5005494;28;20516;-64
2023/07/13 08:59:45;;;;;;;20.85;19.35;;;22.60;1.00;;;;;;4999016;28;20077;-64
2023/07/13 09:02:21;;;;;;;20.67;19.17;;;22.40;1.00;;;;;;5006698;28;20042;-64
2023/07/13 09:04:54;;;;;;;17.40;16.20;;;22.40;1.00;;;;;;5008871;28;20042;-64
2023/07/13 09:07:37;;;;;;;10.80;9.88;;;22.80;1.00;;;;;;5002373;28;20034;-64
2023/07/13 09:10:17;;;;;;;6.97;6.18;;;23.10;1.00;;;;;;5002871;28;20423;-64
2023/07/13 09:12:58;;;;;;;5.70;5.20;;;23.20;1.00;;;;;;5005355;28;20046;-64
2023/07/13 09:15:35;;;;;;;4.85;4.28;;;23.10;1.00;;;;;;5010174;28;20068;-64
2023/07/13 09:18:11;;;;;;;9.10;5.70;;;23.30;1.00;;;;;;5029490;28;20124;-64
2023/07/13 09:20:54;;;;;;;13.15;12.07;;;23.40;1.00;;;;;;5005667;28;20053;-64
2023/07/13 09:23:23;;;;;;;7.65;4.63;;;23.70;1.00;;;;;;5008166;28;20045;-63
2023/07/13 09:25:56;;;;;;;5.97;3.10;;;23.80;1.00;;;;;;4991333;28;20038;-64
2023/07/13 09:28:30;;;;;;;6.93;1.75;;;23.50;1.00;;;;;;5008774;28;20037;-64
2023/07/13 09:31:06;;;;;;;9.95;2.05;;;23.10;1.00;;;;;;4993672;28;20034;-64
2023/07/13 09:33:32;;;;;;;8.48;3.53;;;23.00;1.00;;;;;;4996066;28;21223;-64
2023/07/13 09:35:59;;;;;;;7.13;3.17;;;23.30;1.00;;;;;;5001885;28;20050;-64
2023/07/13 09:38:28;;;;;;;12.93;9.55;;;23.40;1.00;;;;;;5009084;28;20034;-64
2023/07/13 09:41:21;;;;;;;4.95;2.20;;;23.40;1.00;;;;;;5005672;28;20034;-64
2023/07/13 09:44:09;;;;;;;10.02;2.58;;;24.00;1.00;;;;;;5006536;28;20136;-65
2023/07/13 09:46:35;;;;;;;6.60;2.47;;;23.90;1.00;;;;;;5006748;28;20058;-64
2023/07/13 09:49:01;;;;;;;5.68;2.50;;;23.50;1.00;;;;;;4995542;28;20115;-64
2023/07/13 09:51:26;;;;;;;7.78;5.30;;;22.90;1.00;;;;;;5006374;28;20046;-64
2023/07/13 09:53:54;;;;;;;11.27;10.18;;;22.50;1.00;;;;;;5002827;28;20046;-64
2023/07/13 09:56:29;;;;;;;24.42;21.05;;;22.60;1.00;;;;;;4998729;28;20069;-64
2023/07/13 09:58:57;;;;;;;13.63;5.32;;;23.20;1.00;;;;;;5011078;28;20527;-64
2023/07/13 10:01:37;;;;;;;10.13;4.43;;;23.70;1.00;;;;;;5008749;28;20046;-64
2023/07/13 10:04:12;;;;;;;11.65;4.82;;;24.00;1.00;;;;;;5007375;28;20093;-64
2023/07/13 10:06:40;;;;;;;8.40;2.50;;;24.30;1.00;;;;;;5006589;28;20029;-64
2023/07/13 10:09:07;;;;;;;9.02;3.15;;;24.30;1.00;;;;;;5009467;28;20054;-64
2023/07/13 10:11:35;;;;;;;9.25;3.13;;;24.60;1.00;;;;;;5007327;28;20048;-64
2023/07/13 10:14:20;;;;;;;10.27;2.95;;;24.90;1.00;;;;;;5010824;28;20048;-64
2023/07/13 10:16:47;;;;;;;9.30;2.80;;;24.90;1.00;;;;;;5009306;28;20045;-68
2023/07/13 10:19:20;;;;;;;6.13;2.65;;;24.90;1.00;;;;;;5011649;28;20037;-67
2023/07/13 10:21:59;;;;;;;12.10;2.97;;;24.90;1.00;;;;;;5001176;28;20041;-67
2023/07/13 10:24:27;;;;;;;7.38;3.10;;;24.80;1.00;;;;;;5009273;28;20049;-67
2023/07/13 10:27:09;;;;;;;9.93;3.30;;;24.80;1.00;;;;;;5008677;28;20038;-67
2023/07/13 10:29:40;;;;;;;11.57;2.95;;;24.80;1.00;;;;;;5009782;28;20069;-67
2023/07/13 10:32:15;;;;;;;10.40;3.38;;;24.90;1.00;;;;;;5011779;28;20034;-67
2023/07/13 10:34:46;;;;;;;11.77;3.23;;;25.00;1.00;;;;;;5006543;28;20052;-68
2023/07/13 10:37:22;;;;;;;8.98;2.78;;;25.20;1.00;;;;;;5006686;28;20085;-67
2023/07/13 10:39:51;;;;;;;12.15;3.10;;;25.30;1.00;;;;;;5009501;28;20404;-67
2023/07/13 10:42:34;;;;;;;10.50;2.88;;;25.30;1.00;;;;;;5007145;28;20120;-67
2023/07/13 10:45:00;;;;;;;8.23;2.95;;;25.20;1.00;;;;;;5005409;28;20042;-67
2023/07/13 10:47:26;;;;;;;12.60;3.22;;;25.10;1.00;;;;;;5010521;28;20121;-67
2023/07/13 10:49:56;;;;;;;6.43;2.65;;;24.80;1.00;;;;;;5007515;28;20038;-68
2023/07/13 10:52:40;;;;;;;7.72;2.60;;;24.60;1.00;;;;;;5009286;28;20523;-69
2023/07/13 10:55:25;;;;;;;6.45;2.88;;;24.50;1.00;;;;;;5024041;28;20053;-66
2023/07/13 10:57:51;;;;;;;8.38;3.17;;;24.40;1.00;;;;;;5007682;28;20072;-66
2023/07/13 11:00:18;;;;;;;7.70;2.95;;;24.20;1.00;;;;;;5010421;28;20041;-66
2023/07/13 11:02:56;;;;;;;7.65;3.20;;;24.20;1.00;;;;;;4999098;28;20181;-65
2023/07/13 11:05:33;;;;;;;10.25;3.28;;;24.40;1.00;;;;;;5000816;28;20632;-65
2023/07/13 11:08:31;;;;;;;7.38;2.88;;;24.40;1.00;;;;;;5010390;28;20136;-65
2023/07/13 11:10:57;;;;;;;9.93;3.38;;;24.40;1.00;;;;;;5004995;28;20500;-66
2023/07/13 11:13:38;;;;;;;10.80;3.45;;;24.40;1.00;;;;;;5010560;28;20033;-65
2023/07/13 11:16:22;;;;;;;8.75;2.97;;;24.20;1.00;;;;;;5007286;28;20049;-65
2023/07/13 11:18:49;;;;;;;8.13;3.10;;;23.90;1.00;;;;;;5007486;28;20049;-70
2023/07/13 11:21:21;;;;;;;12.45;3.63;;;23.70;1.00;;;;;;5038476;28;20419;-70
2023/07/13 11:24:00;;;;;;;12.68;3.40;;;23.40;1.00;;;;;;5007851;28;20463;-70
2023/07/13 11:26:43;;;;;;;11.75;3.20;;;23.40;1.00;;;;;;5004454;28;20875;-70
2023/07/13 11:29:36;;;;;;;9.60;3.47;;;23.50;1.00;;;;;;5021786;28;20038;-70
2023/07/13 11:32:29;;;;;;;12.93;3.70;;;23.50;1.00;;;;;;4997343;28;20105;-70
2023/07/13 11:34:55;;;;;;;9.85;2.97;;;23.50;1.00;;;;;;5034084;28;20124;-70
2023/07/13 11:37:22;;;;;;;11.38;3.05;;;23.50;1.00;;;;;;4998840;28;20441;-70
2023/07/13 11:39:51;;;;;;;9.05;3.28;;;23.50;1.00;;;;;;5005061;28;20049;-70
2023/07/13 11:42:18;;;;;;;8.23;3.38;;;23.50;1.00;;;;;;5009656;28;20084;-70
2023/07/13 11:44:48;;;;;;;10.13;3.60;;;23.40;1.00;;;;;;5007363;28;20124;-69
2023/07/13 11:47:21;;;;;;;14.73;3.80;;;23.50;1.00;;;;;;4997644;28;20049;-69
2023/07/13 11:49:59;;;;;;;9.52;4.25;;;23.50;1.00;;;;;;5005920;28;20404;-70
2023/07/13 11:52:37;;;;;;;8.30;3.10;;;23.60;1.00;;;;;;5008188;28;20040;-70
2023/07/13 11:55:14;;;;;;;8.18;2.97;;;23.50;1.00;;;;;;5006178;28;20574;-70
2023/07/13 11:58:01;;;;;;;10.77;3.10;;;23.50;1.00;;;;;;5009855;28;20045;-70
2023/07/13 12:00:31;;;;;;;7.47;2.95;;;23.60;1.00;;;;;;5012821;28;20134;-71
2023/07/13 12:02:59;;;;;;;9.60;3.03;;;23.50;1.00;;;;;;5005607;28;20045;-69
2023/07/13 12:05:25;;;;;;;9.20;2.80;;;23.60;1.00;;;;;;5009281;28;20130;-70
2023/07/13 12:07:51;;;;;;;5.53;2.47;;;23.60;1.00;;;;;;5004482;28;20120;-70
2023/07/13 12:10:28;;;;;;;7.15;2.60;;;23.60;1.00;;;;;;4998679;28;21573;-70
2023/07/13 12:12:57;;;;;;;7.55;3.10;;;23.60;1.00;;;;;;4999148;28;20395;-69
2023/07/13 12:15:27;;;;;;;14.10;3.25;;;23.60;1.00;;;;;;5005260;28;20073;-70
2023/07/13 12:17:53;;;;;;;6.30;3.00;;;23.50;1.00;;;;;;5023586;28;20074;-71
2023/07/13 12:20:26;;;;;;;10.30;3.00;;;23.70;1.00;;;;;;5023244;28;20085;-70
2023/07/13 12:22:52;;;;;;;10.25;3.20;;;23.50;1.00;;;;;;5009047;28;20512;-70
2023/07/13 12:25:19;;;;;;;8.73;2.90;;;23.60;1.00;;;;;;4998956;28;20049;-69
2023/07/13 12:27:50;;;;;;;13.52;3.55;;;23.50;1.00;;;;;;5003634;28;20126;-71
2023/07/13 12:30:28;;;;;;;11.98;3.00;;;23.60;1.00;;;;;;5003157;28;20496;-71
2023/07/13 12:33:01;;;;;;;10.63;3.13;;;23.50;1.00;;;;;;5007360;28;20042;-71
2023/07/13 12:35:30;;;;;;;10.05;3.10;;;23.30;1.00;;;;;;5004323;28;20056;-70
2023/07/13 12:37:59;;;;;;;11.48;3.08;;;23.40;1.00;;;;;;5004112;28;20409;-70
2023/07/13 12:40:32;;;;;;;13.77;3.80;;;23.40;1.00;;;;;;5006135;28;20045;-71
2023/07/13 12:42:58;;;;;;;10.77;4.05;;;23.40;1.00;;;;;;5035490;28;20381;-71